sensor_id;sensor_type;location;lat;lon;timestamp;P1;durP1;ratioP1;P2;durP2;ratioP2
76900;SDS011;65859;43.020;25.096;2023-02-28T00:01:30;25.80;;;16.58;;
76900;SDS011;65859;43.020;25.096;2023-02-28T00:03:57;25.08;;;17.00;;
76900;SDS011;65859;43.020;25.096;2023-02-28T00:06:23;22.77;;;15.60;;
76900;SDS011;65859;43.020;25.096;2023-02-28T00:08:50;23.25;;;16.13;;
76900;SDS011;65859;43.020;25.096;2023-02-28T00:11:16;21.52;;;16.15;;
76900;SDS011;65859;43.020;25.096;2023-02-28T00:13:44;23.67;;;16.02;;
76900;SDS011;65859;43.020;25.096;2023-02-28T00:16:16;23.10;;;16.75;;
76900;SDS011;65859;43.020;25.096;2023-02-28T00:18:45;20.98;;;15.18;;
76900;SDS011;65859;43.020;25.096;2023-02-28T00:21:12;23.77;;;16.85;;
76900;SDS011;65859;43.020;25.096;2023-02-28T00:23:39;26.63;;;17.17;;
76900;SDS011;65859;43.020;25.096;2023-02-28T00:26:05;33.78;;;23.40;;
76900;SDS011;65859;43.020;25.096;2023-02-28T00:28:32;26.10;;;17.58;;
76900;SDS011;65859;43.020;25.096;2023-02-28T00:30:58;27.20;;;17.27;;
76900;SDS011;65859;43.020;25.096;2023-02-28T00:33:25;23.85;;;16.65;;
76900;SDS011;65859;43.020;25.096;2023-02-28T00:35:55;22.85;;;16.08;;
76900;SDS011;65859;43.020;25.096;2023-02-28T00:38:28;21.35;;;14.80;;
76900;SDS011;65859;43.020;25.096;2023-02-28T00:40:55;21.35;;;15.73;;
76900;SDS011;65859;43.020;25.096;2023-02-28T00:43:21;24.85;;;17.20;;
76900;SDS011;65859;43.020;25.096;2023-02-28T00:45:47;26.00;;;16.83;;
76900;SDS011;65859;43.020;25.096;2023-02-28T00:48:14;25.35;;;17.40;;
76900;SDS011;65859;43.020;25.096;2023-02-28T00:50:42;25.23;;;16.75;;
76900;SDS011;65859;43.020;25.096;2023-02-28T00:53:08;22.23;;;15.68;;
76900;SDS011;65859;43.020;25.096;2023-02-28T00:55:35;18.15;;;14.25;;
76900;SDS011;65859;43.020;25.096;2023-02-28T00:58:01;18.38;;;14.65;;
76900;SDS011;65859;43.020;25.096;2023-02-28T01:00:27;20.73;;;14.80;;
76900;SDS011;65859;43.020;25.096;2023-02-28T01:02:53;18.98;;;13.65;;
76900;SDS011;65859;43.020;25.096;2023-02-28T01:05:20;19.02;;;13.95;;
76900;SDS011;65859;43.020;25.096;2023-02-28T01:07:46;17.20;;;13.02;;
76900;SDS011;65859;43.020;25.096;2023-02-28T01:10:12;17.35;;;12.77;;
76900;SDS011;65859;43.020;25.096;2023-02-28T01:12:39;18.88;;;14.13;;
76900;SDS011;65859;43.020;25.096;2023-02-28T01:15:05;18.65;;;13.85;;
76900;SDS011;65859;43.020;25.096;2023-02-28T01:17:32;18.90;;;14.35;;
76900;SDS011;65859;43.020;25.096;2023-02-28T01:19:58;21.05;;;13.38;;
76900;SDS011;65859;43.020;25.096;2023-02-28T01:22:26;21.27;;;13.98;;
76900;SDS011;65859;43.020;25.096;2023-02-28T01:24:52;20.15;;;13.50;;
76900;SDS011;65859;43.020;25.096;2023-02-28T01:27:19;20.02;;;14.25;;
76900;SDS011;65859;43.020;25.096;2023-02-28T01:29:45;20.20;;;13.07;;
76900;SDS011;65859;43.020;25.096;2023-02-28T01:32:11;21.25;;;14.13;;
76900;SDS011;65859;43.020;25.096;2023-02-28T01:34:38;20.23;;;14.07;;
76900;SDS011;65859;43.020;25.096;2023-02-28T01:37:04;21.85;;;15.23;;
76900;SDS011;65859;43.020;25.096;2023-02-28T01:39:30;19.58;;;14.70;;
76900;SDS011;65859;43.020;25.096;2023-02-28T01:41:57;16.85;;;13.30;;
76900;SDS011;65859;43.020;25.096;2023-02-28T01:47:20;20.02;;;12.75;;
76900;SDS011;65859;43.020;25.096;2023-02-28T01:49:49;16.73;;;13.35;;
76900;SDS011;65859;43.020;25.096;2023-02-28T01:52:16;19.75;;;14.30;;
76900;SDS011;65859;43.020;25.096;2023-02-28T01:54:45;18.60;;;13.52;;
76900;SDS011;65859;43.020;25.096;2023-02-28T01:57:16;17.13;;;13.32;;
76900;SDS011;65859;43.020;25.096;2023-02-28T01:59:48;18.70;;;13.27;;
76900;SDS011;65859;43.020;25.096;2023-02-28T02:02:20;20.30;;;14.98;;
76900;SDS011;65859;43.020;25.096;2023-02-28T02:04:53;22.52;;;14.77;;
76900;SDS011;65859;43.020;25.096;2023-02-28T02:07:26;19.42;;;13.75;;
76900;SDS011;65859;43.020;25.096;2023-02-28T02:10:01;18.40;;;14.10;;
76900;SDS011;65859;43.020;25.096;2023-02-28T02:12:51;19.63;;;13.55;;
76900;SDS011;65859;43.020;25.096;2023-02-28T02:18:39;19.40;;;14.15;;
76900;SDS011;65859;43.020;25.096;2023-02-28T02:35:54;20.17;;;14.52;;
76900;SDS011;65859;43.020;25.096;2023-02-28T02:43:47;19.33;;;13.93;;
76900;SDS011;65859;43.020;25.096;2023-02-28T02:46:34;25.42;;;15.43;;
76900;SDS011;65859;43.020;25.096;2023-02-28T02:49:06;21.83;;;14.65;;
76900;SDS011;65859;43.020;25.096;2023-02-28T02:51:36;24.88;;;15.52;;
76900;SDS011;65859;43.020;25.096;2023-02-28T02:54:08;22.40;;;16.05;;
76900;SDS011;65859;43.020;25.096;2023-02-28T02:56:34;28.90;;;16.42;;
76900;SDS011;65859;43.020;25.096;2023-02-28T02:59:06;23.77;;;17.15;;
76900;SDS011;65859;43.020;25.096;2023-02-28T03:01:36;29.52;;;18.25;;
76900;SDS011;65859;43.020;25.096;2023-02-28T03:04:10;29.65;;;16.67;;
76900;SDS011;65859;43.020;25.096;2023-02-28T03:06:41;27.85;;;19.15;;
76900;SDS011;65859;43.020;25.096;2023-02-28T03:09:07;27.73;;;18.50;;
76900;SDS011;65859;43.020;25.096;2023-02-28T03:11:34;30.38;;;18.85;;
76900;SDS011;65859;43.020;25.096;2023-02-28T03:14:05;30.67;;;19.27;;
76900;SDS011;65859;43.020;25.096;2023-02-28T03:28:12;29.05;;;17.20;;
76900;SDS011;65859;43.020;25.096;2023-02-28T03:33:42;30.42;;;18.80;;
76900;SDS011;65859;43.020;25.096;2023-02-28T03:36:20;27.38;;;17.98;;
76900;SDS011;65859;43.020;25.096;2023-02-28T03:38:51;25.80;;;17.40;;
76900;SDS011;65859;43.020;25.096;2023-02-28T03:44:10;27.55;;;18.45;;
76900;SDS011;65859;43.020;25.096;2023-02-28T03:49:40;26.10;;;17.98;;
76900;SDS011;65859;43.020;25.096;2023-02-28T03:52:16;25.00;;;17.88;;
76900;SDS011;65859;43.020;25.096;2023-02-28T03:54:47;26.42;;;17.33;;
76900;SDS011;65859;43.020;25.096;2023-02-28T03:59:50;34.38;;;20.23;;
76900;SDS011;65859;43.020;25.096;2023-02-28T04:02:23;33.60;;;22.20;;
76900;SDS011;65859;43.020;25.096;2023-02-28T04:04:49;33.85;;;21.15;;
76900;SDS011;65859;43.020;25.096;2023-02-28T04:07:16;32.70;;;22.50;;
76900;SDS011;65859;43.020;25.096;2023-02-28T04:09:43;29.67;;;21.17;;
76900;SDS011;65859;43.020;25.096;2023-02-28T04:12:09;34.28;;;22.02;;
76900;SDS011;65859;43.020;25.096;2023-02-28T04:14:36;35.30;;;22.90;;
76900;SDS011;65859;43.020;25.096;2023-02-28T04:17:02;36.00;;;24.05;;
76900;SDS011;65859;43.020;25.096;2023-02-28T04:19:29;35.53;;;21.67;;
76900;SDS011;65859;43.020;25.096;2023-02-28T04:21:55;36.22;;;22.17;;
76900;SDS011;65859;43.020;25.096;2023-02-28T04:24:26;32.75;;;21.55;;
76900;SDS011;65859;43.020;25.096;2023-02-28T04:26:53;35.78;;;21.27;;
76900;SDS011;65859;43.020;25.096;2023-02-28T04:29:22;35.20;;;23.35;;
76900;SDS011;65859;43.020;25.096;2023-02-28T04:31:52;37.80;;;22.10;;
76900;SDS011;65859;43.020;25.096;2023-02-28T04:34:22;34.65;;;21.70;;
76900;SDS011;65859;43.020;25.096;2023-02-28T04:36:49;35.20;;;23.27;;
76900;SDS011;65859;43.020;25.096;2023-02-28T04:39:18;37.95;;;24.65;;
76900;SDS011;65859;43.020;25.096;2023-02-28T04:41:49;35.08;;;21.48;;
76900;SDS011;65859;43.020;25.096;2023-02-28T04:44:15;67.57;;;40.58;;
76900;SDS011;65859;43.020;25.096;2023-02-28T04:46:42;73.28;;;42.83;;
76900;SDS011;65859;43.020;25.096;2023-02-28T04:49:12;41.40;;;25.13;;
76900;SDS011;65859;43.020;25.096;2023-02-28T04:51:39;51.85;;;31.48;;
76900;SDS011;65859;43.020;25.096;2023-02-28T04:54:05;46.63;;;30.52;;
76900;SDS011;65859;43.020;25.096;2023-02-28T04:56:32;38.33;;;21.92;;
76900;SDS011;65859;43.020;25.096;2023-02-28T04:58:58;39.03;;;25.02;;
76900;SDS011;65859;43.020;25.096;2023-02-28T05:01:26;34.88;;;22.60;;
76900;SDS011;65859;43.020;25.096;2023-02-28T05:03:55;34.35;;;21.60;;
76900;SDS011;65859;43.020;25.096;2023-02-28T05:06:25;33.63;;;20.92;;
76900;SDS011;65859;43.020;25.096;2023-02-28T05:08:52;33.15;;;20.98;;
76900;SDS011;65859;43.020;25.096;2023-02-28T05:11:20;53.25;;;34.03;;
76900;SDS011;65859;43.020;25.096;2023-02-28T05:14:03;35.75;;;22.25;;
76900;SDS011;65859;43.020;25.096;2023-02-28T05:16:32;41.80;;;23.20;;
76900;SDS011;65859;43.020;25.096;2023-02-28T05:18:58;32.35;;;20.15;;
76900;SDS011;65859;43.020;25.096;2023-02-28T05:21:29;36.90;;;20.55;;
76900;SDS011;65859;43.020;25.096;2023-02-28T05:23:56;38.83;;;21.85;;
76900;SDS011;65859;43.020;25.096;2023-02-28T05:26:24;36.30;;;21.80;;
76900;SDS011;65859;43.020;25.096;2023-02-28T05:28:52;38.50;;;20.48;;
76900;SDS011;65859;43.020;25.096;2023-02-28T05:31:19;38.63;;;21.77;;
76900;SDS011;65859;43.020;25.096;2023-02-28T05:33:46;36.30;;;21.00;;
76900;SDS011;65859;43.020;25.096;2023-02-28T05:36:13;36.28;;;19.67;;
76900;SDS011;65859;43.020;25.096;2023-02-28T05:38:40;35.13;;;20.25;;
76900;SDS011;65859;43.020;25.096;2023-02-28T05:41:07;31.27;;;19.75;;
76900;SDS011;65859;43.020;25.096;2023-02-28T05:43:35;23.80;;;15.30;;
76900;SDS011;65859;43.020;25.096;2023-02-28T05:46:02;24.35;;;16.33;;
76900;SDS011;65859;43.020;25.096;2023-02-28T05:48:33;21.88;;;12.93;;
76900;SDS011;65859;43.020;25.096;2023-02-28T05:51:01;19.17;;;13.57;;
76900;SDS011;65859;43.020;25.096;2023-02-28T05:53:28;20.85;;;13.82;;
76900;SDS011;65859;43.020;25.096;2023-02-28T05:55:54;21.45;;;12.90;;
76900;SDS011;65859;43.020;25.096;2023-02-28T05:58:21;24.27;;;16.50;;
76900;SDS011;65859;43.020;25.096;2023-02-28T06:00:47;23.65;;;15.05;;
76900;SDS011;65859;43.020;25.096;2023-02-28T06:03:14;18.02;;;12.30;;
76900;SDS011;65859;43.020;25.096;2023-02-28T06:05:40;23.17;;;13.93;;
76900;SDS011;65859;43.020;25.096;2023-02-28T06:08:06;21.45;;;12.88;;
76900;SDS011;65859;43.020;25.096;2023-02-28T06:10:34;18.70;;;11.80;;
76900;SDS011;65859;43.020;25.096;2023-02-28T06:13:01;17.80;;;12.10;;
76900;SDS011;65859;43.020;25.096;2023-02-28T06:15:29;21.45;;;14.07;;
76900;SDS011;65859;43.020;25.096;2023-02-28T06:17:55;23.88;;;14.95;;
76900;SDS011;65859;43.020;25.096;2023-02-28T06:20:23;18.65;;;11.18;;
76900;SDS011;65859;43.020;25.096;2023-02-28T06:22:51;19.02;;;11.95;;
76900;SDS011;65859;43.020;25.096;2023-02-28T06:25:19;19.38;;;11.50;;
76900;SDS011;65859;43.020;25.096;2023-02-28T06:27:46;19.77;;;11.65;;
76900;SDS011;65859;43.020;25.096;2023-02-28T06:30:13;18.85;;;11.27;;
76900;SDS011;65859;43.020;25.096;2023-02-28T06:32:39;18.33;;;12.10;;
76900;SDS011;65859;43.020;25.096;2023-02-28T06:35:06;19.27;;;11.82;;
76900;SDS011;65859;43.020;25.096;2023-02-28T06:37:33;17.98;;;10.93;;
76900;SDS011;65859;43.020;25.096;2023-02-28T06:39:59;17.35;;;11.75;;
76900;SDS011;65859;43.020;25.096;2023-02-28T06:42:27;18.48;;;10.88;;
76900;SDS011;65859;43.020;25.096;2023-02-28T06:44:55;17.83;;;10.65;;
76900;SDS011;65859;43.020;25.096;2023-02-28T06:47:22;19.15;;;12.32;;
76900;SDS011;65859;43.020;25.096;2023-02-28T06:49:49;19.45;;;13.00;;
76900;SDS011;65859;43.020;25.096;2023-02-28T06:52:16;17.50;;;11.15;;
76900;SDS011;65859;43.020;25.096;2023-02-28T06:54:43;16.13;;;10.02;;
76900;SDS011;65859;43.020;25.096;2023-02-28T06:57:09;14.30;;;9.32;;
76900;SDS011;65859;43.020;25.096;2023-02-28T06:59:35;14.27;;;10.63;;
76900;SDS011;65859;43.020;25.096;2023-02-28T07:02:02;14.00;;;9.82;;
76900;SDS011;65859;43.020;25.096;2023-02-28T07:04:28;14.98;;;9.98;;
76900;SDS011;65859;43.020;25.096;2023-02-28T07:06:55;13.85;;;9.38;;
76900;SDS011;65859;43.020;25.096;2023-02-28T07:09:22;14.68;;;9.73;;
76900;SDS011;65859;43.020;25.096;2023-02-28T07:11:48;17.92;;;12.55;;
76900;SDS011;65859;43.020;25.096;2023-02-28T07:14:16;19.67;;;11.48;;
76900;SDS011;65859;43.020;25.096;2023-02-28T07:16:43;19.15;;;11.43;;
76900;SDS011;65859;43.020;25.096;2023-02-28T07:19:10;18.15;;;11.00;;
76900;SDS011;65859;43.020;25.096;2023-02-28T07:21:36;18.92;;;10.65;;
76900;SDS011;65859;43.020;25.096;2023-02-28T07:24:03;16.73;;;10.15;;
76900;SDS011;65859;43.020;25.096;2023-02-28T07:26:29;19.40;;;10.48;;
76900;SDS011;65859;43.020;25.096;2023-02-28T07:28:59;17.63;;;10.90;;
76900;SDS011;65859;43.020;25.096;2023-02-28T07:31:25;21.65;;;11.88;;
76900;SDS011;65859;43.020;25.096;2023-02-28T07:33:51;19.70;;;11.15;;
76900;SDS011;65859;43.020;25.096;2023-02-28T07:36:19;19.08;;;12.02;;
76900;SDS011;65859;43.020;25.096;2023-02-28T07:38:46;15.98;;;10.80;;
76900;SDS011;65859;43.020;25.096;2023-02-28T07:41:18;16.40;;;10.90;;
76900;SDS011;65859;43.020;25.096;2023-02-28T07:43:46;17.75;;;10.70;;
76900;SDS011;65859;43.020;25.096;2023-02-28T07:46:15;15.50;;;9.25;;
76900;SDS011;65859;43.020;25.096;2023-02-28T07:48:42;15.52;;;10.60;;
76900;SDS011;65859;43.020;25.096;2023-02-28T07:51:09;16.45;;;10.57;;
76900;SDS011;65859;43.020;25.096;2023-02-28T07:53:35;13.77;;;9.60;;
76900;SDS011;65859;43.020;25.096;2023-02-28T07:56:02;14.63;;;10.40;;
76900;SDS011;65859;43.020;25.096;2023-02-28T07:58:32;15.02;;;9.98;;
76900;SDS011;65859;43.020;25.096;2023-02-28T08:01:09;13.30;;;10.02;;
76900;SDS011;65859;43.020;25.096;2023-02-28T08:03:36;14.40;;;10.23;;
76900;SDS011;65859;43.020;25.096;2023-02-28T08:06:04;15.02;;;10.57;;
76900;SDS011;65859;43.020;25.096;2023-02-28T08:08:31;16.77;;;11.57;;
